createdAt,value
2017-10-21T00:01:27.119Z,3.30
2017-10-21T00:03:54.685Z,1.87
2017-10-21T00:06:22.223Z,2.97
2017-10-21T00:08:49.771Z,3.10
2017-10-21T00:11:18.103Z,2.87
2017-10-21T00:13:45.751Z,3.60
2017-10-21T00:16:13.324Z,2.70
2017-10-21T00:18:40.894Z,2.80
2017-10-21T00:21:08.448Z,2.37
2017-10-21T00:23:35.977Z,3.43
2017-10-21T00:26:03.556Z,3.03
2017-10-21T00:28:31.089Z,2.60
2017-10-21T00:30:58.645Z,2.40
2017-10-21T00:33:26.962Z,2.90
2017-10-21T00:35:54.492Z,2.67
2017-10-21T00:38:22.071Z,2.97
2017-10-21T00:40:49.619Z,2.60
2017-10-21T00:43:17.173Z,2.30
2017-10-21T00:45:44.735Z,2.70
2017-10-21T00:48:13.133Z,2.60
2017-10-21T00:50:40.690Z,2.73
2017-10-21T00:53:08.496Z,2.50
2017-10-21T00:55:36.099Z,3.07
2017-10-21T00:58:04.429Z,2.27
2017-10-21T01:00:32.838Z,3.20
2017-10-21T01:03:01.169Z,2.20
2017-10-21T01:05:28.739Z,2.57
2017-10-21T01:07:56.277Z,2.97
2017-10-21T01:10:23.858Z,3.77
2017-10-21T01:12:51.391Z,2.47
2017-10-21T01:15:19.744Z,2.60
2017-10-21T01:17:47.300Z,2.73
2017-10-21T01:20:14.834Z,1.90
2017-10-21T01:22:42.425Z,2.27
2017-10-21T01:25:09.987Z,2.40
2017-10-21T01:27:37.542Z,2.30
2017-10-21T01:30:05.096Z,1.50
2017-10-21T01:32:32.658Z,1.57
2017-10-21T01:35:00.219Z,2.10
2017-10-21T01:37:27.785Z,1.80
2017-10-21T01:39:55.343Z,2.00
2017-10-21T01:42:23.656Z,2.77
2017-10-21T01:44:51.985Z,1.73
2017-10-21T01:47:19.523Z,1.97
2017-10-21T01:49:47.095Z,2.23
2017-10-21T01:52:14.648Z,2.57
2017-10-21T01:54:42.247Z,2.27
2017-10-21T01:57:09.799Z,2.70
2017-10-21T01:59:37.356Z,2.70
2017-10-21T02:02:04.940Z,2.57
2017-10-21T02:04:32.488Z,3.90
2017-10-21T02:07:00.064Z,3.00
2017-10-21T02:09:27.593Z,2.43
2017-10-21T02:11:55.151Z,2.93
2017-10-21T02:14:22.689Z,2.40
2017-10-21T02:16:51.027Z,2.70
2017-10-21T02:19:18.579Z,2.30
2017-10-21T02:21:46.168Z,2.90
2017-10-21T02:24:13.731Z,3.13
2017-10-21T02:26:41.304Z,2.60
2017-10-21T02:29:09.624Z,2.70
2017-10-21T02:31:37.199Z,2.73
2017-10-21T02:34:04.761Z,2.03
2017-10-21T02:36:32.298Z,2.53
2017-10-21T02:38:59.880Z,2.87
2017-10-21T02:41:27.416Z,2.37
2017-10-21T02:43:54.993Z,2.57
2017-10-21T02:46:22.541Z,2.57
2017-10-21T02:48:50.129Z,3.10
2017-10-21T02:51:18.437Z,2.83
2017-10-21T02:53:46.000Z,2.40
2017-10-21T02:56:13.553Z,2.90
2017-10-21T02:58:41.115Z,2.63
2017-10-21T03:01:08.647Z,2.00
2017-10-21T03:03:36.246Z,2.50
2017-10-21T03:06:03.798Z,1.73
2017-10-21T03:08:31.328Z,2.03
2017-10-21T03:10:59.005Z,2.00
2017-10-21T03:13:26.532Z,2.97
2017-10-21T03:15:54.089Z,2.50
2017-10-21T03:18:22.391Z,2.30
2017-10-21T03:20:49.954Z,2.27
2017-10-21T03:23:17.508Z,2.27
2017-10-21T03:25:45.077Z,1.53
2017-10-21T03:28:12.616Z,2.77
2017-10-21T03:30:40.955Z,2.03
2017-10-21T03:33:08.503Z,2.10
2017-10-21T03:35:36.042Z,2.00
2017-10-21T03:38:03.593Z,2.53
2017-10-21T03:40:31.128Z,2.13
2017-10-21T03:42:59.464Z,2.50
2017-10-21T03:45:27.019Z,2.00
2017-10-21T03:47:54.612Z,1.87
2017-10-21T03:50:22.157Z,2.10
2017-10-21T03:52:49.708Z,2.13
2017-10-21T03:55:17.285Z,2.20
2017-10-21T03:57:44.820Z,1.87
2017-10-21T04:00:12.401Z,2.13
2017-10-21T04:02:39.960Z,2.30
2017-10-21T04:05:07.517Z,2.40
2017-10-21T04:07:35.075Z,2.00
2017-10-21T04:10:02.627Z,2.30
2017-10-21T04:12:30.220Z,1.93
2017-10-21T04:14:57.765Z,2.07
2017-10-21T04:17:25.353Z,2.37
2017-10-21T04:19:52.890Z,2.50
2017-10-21T04:22:20.466Z,1.47
2017-10-21T04:24:47.994Z,2.17
2017-10-21T04:27:16.274Z,2.13
2017-10-21T04:29:43.833Z,2.40
2017-10-21T04:32:11.366Z,2.10
2017-10-21T04:34:39.689Z,2.60
2017-10-21T04:37:07.235Z,1.93
2017-10-21T04:39:34.821Z,2.60
2017-10-21T04:42:02.353Z,2.20
2017-10-21T04:44:29.911Z,2.10
2017-10-21T04:46:57.504Z,1.93
2017-10-21T04:49:25.053Z,2.10
2017-10-21T04:51:52.635Z,2.00
2017-10-21T04:54:20.188Z,2.53
2017-10-21T04:56:47.779Z,2.60
2017-10-21T04:59:15.343Z,1.80
2017-10-21T05:01:42.886Z,1.73
2017-10-21T05:04:10.445Z,2.43
2017-10-21T05:06:37.995Z,1.50
2017-10-21T05:09:05.576Z,2.83
2017-10-21T05:11:33.120Z,2.37
2017-10-21T05:14:00.681Z,2.43
2017-10-21T05:16:28.209Z,2.20
2017-10-21T05:18:56.547Z,2.70
2017-10-21T05:21:24.078Z,2.03
2017-10-21T05:23:51.659Z,1.60
2017-10-21T05:26:19.187Z,2.10
2017-10-21T05:28:46.748Z,1.73
2017-10-21T05:31:14.297Z,1.63
2017-10-21T05:33:41.840Z,2.40
2017-10-21T05:36:10.173Z,1.57
2017-10-21T05:38:37.725Z,2.03
2017-10-21T05:41:05.274Z,2.30
2017-10-21T05:43:32.808Z,1.67
2017-10-21T05:46:01.148Z,1.70
2017-10-21T05:48:28.716Z,2.03
2017-10-21T05:50:56.292Z,1.40
2017-10-21T05:53:23.809Z,1.80
2017-10-21T05:55:51.373Z,2.60
2017-10-21T05:58:18.936Z,2.63
2017-10-21T06:00:46.464Z,1.90
2017-10-21T06:03:14.810Z,2.40
2017-10-21T06:05:42.362Z,2.07
2017-10-21T06:08:09.944Z,2.30
2017-10-21T06:10:37.487Z,2.12
2017-10-21T06:13:05.054Z,2.07
2017-10-21T06:15:32.614Z,2.93
2017-10-21T06:18:00.964Z,1.60
2017-10-21T06:20:28.512Z,3.30
2017-10-21T06:22:56.068Z,2.00
2017-10-21T06:25:24.380Z,2.30
2017-10-21T06:27:51.959Z,2.10
2017-10-21T06:30:19.506Z,2.87
2017-10-21T06:32:47.082Z,2.40
2017-10-21T06:35:14.668Z,2.20
2017-10-21T06:37:42.242Z,2.10
2017-10-21T06:40:10.580Z,1.87
2017-10-21T06:42:38.135Z,2.37
2017-10-21T06:45:05.712Z,2.10
2017-10-21T06:47:33.280Z,2.17
2017-10-21T06:50:00.835Z,3.50
2017-10-21T06:52:28.432Z,2.47
2017-10-21T06:54:55.990Z,1.53
2017-10-21T06:57:24.350Z,2.00
2017-10-21T06:59:52.700Z,2.13
2017-10-21T07:02:20.246Z,2.43
2017-10-21T07:04:47.814Z,2.30
2017-10-21T07:07:15.389Z,2.23
2017-10-21T07:09:42.957Z,2.90
2017-10-21T07:12:10.522Z,2.20
2017-10-21T07:14:38.093Z,3.23
2017-10-21T07:17:05.659Z,3.33
2017-10-21T07:19:33.201Z,3.73
2017-10-21T07:22:00.775Z,4.07
2017-10-21T07:24:28.314Z,2.67
2017-10-21T07:26:55.900Z,4.40
2017-10-21T07:29:23.457Z,3.03
2017-10-21T07:31:51.023Z,3.77
2017-10-21T07:34:18.600Z,3.87
2017-10-21T07:36:46.154Z,2.37
2017-10-21T07:39:13.734Z,3.90
2017-10-21T07:41:41.303Z,2.53
2017-10-21T07:44:09.659Z,3.27
2017-10-21T07:46:37.188Z,3.40
2017-10-21T07:49:04.770Z,2.57
2017-10-21T07:51:32.320Z,3.10
2017-10-21T07:53:59.882Z,2.80
2017-10-21T07:56:27.432Z,3.30
2017-10-21T07:58:54.995Z,2.50
2017-10-21T08:01:22.530Z,3.47
2017-10-21T08:03:50.105Z,3.27
2017-10-21T08:06:17.648Z,2.60
2017-10-21T08:08:46.018Z,3.13
2017-10-21T08:11:14.325Z,3.33
2017-10-21T08:13:41.908Z,3.30
2017-10-21T08:16:09.482Z,3.20
2017-10-21T08:18:37.016Z,4.63
2017-10-21T08:21:04.577Z,3.60
2017-10-21T08:23:32.140Z,3.17
2017-10-21T08:25:59.716Z,3.43
2017-10-21T08:28:27.274Z,3.60
2017-10-21T08:30:54.856Z,3.70
2017-10-21T08:33:22.399Z,3.90
2017-10-21T08:35:49.959Z,3.57
2017-10-21T08:38:17.535Z,3.67
2017-10-21T08:40:45.086Z,3.30
2017-10-21T08:43:12.668Z,3.70
2017-10-21T08:45:40.224Z,2.87
2017-10-21T08:48:07.775Z,3.20
2017-10-21T08:50:35.309Z,3.17
2017-10-21T08:53:02.877Z,3.67
2017-10-21T08:55:30.408Z,3.80
2017-10-21T08:57:58.726Z,5.23
2017-10-21T09:00:26.293Z,5.30
2017-10-21T09:02:53.846Z,3.17
2017-10-21T09:05:21.407Z,3.83
2017-10-21T09:07:48.940Z,4.60
2017-10-21T09:10:17.279Z,4.27
2017-10-21T09:12:44.839Z,4.50
2017-10-21T09:15:12.417Z,3.90
2017-10-21T09:17:39.971Z,3.83
2017-10-21T09:20:07.560Z,4.40
2017-10-21T09:22:35.871Z,4.67
2017-10-21T09:25:03.421Z,3.83
2017-10-21T09:27:30.984Z,3.90
2017-10-21T09:29:58.525Z,4.17
2017-10-21T09:32:26.104Z,5.33
2017-10-21T09:34:53.664Z,4.60
2017-10-21T09:37:22.020Z,4.43
2017-10-21T09:39:49.556Z,4.47
2017-10-21T09:42:17.118Z,5.07
2017-10-21T09:44:44.687Z,5.03
2017-10-21T09:47:12.270Z,4.50
2017-10-21T09:49:39.797Z,4.73
2017-10-21T09:52:07.383Z,4.67
2017-10-21T09:54:34.939Z,4.50
2017-10-21T09:57:02.511Z,5.37
2017-10-21T09:59:30.063Z,4.90
2017-10-21T10:01:57.626Z,5.17
2017-10-21T10:04:25.179Z,5.77
2017-10-21T10:06:52.761Z,5.10
2017-10-21T10:09:20.319Z,5.00
2017-10-21T10:11:47.892Z,5.57
2017-10-21T10:14:15.442Z,5.53
2017-10-21T10:16:42.994Z,3.70
2017-10-21T10:19:10.549Z,4.53
2017-10-21T10:21:38.169Z,5.37
2017-10-21T10:24:05.715Z,4.70
2017-10-21T10:26:34.046Z,3.93
2017-10-21T10:29:01.600Z,4.60
2017-10-21T10:31:29.189Z,3.27
2017-10-21T10:33:56.742Z,4.03
2017-10-21T10:36:24.283Z,3.87
2017-10-21T10:38:51.857Z,3.83
2017-10-21T10:41:20.205Z,3.70
2017-10-21T10:43:47.760Z,3.67
2017-10-21T10:46:15.301Z,3.70
2017-10-21T10:48:43.652Z,3.97
2017-10-21T10:51:11.206Z,3.77
2017-10-21T10:53:38.747Z,4.23
2017-10-21T10:56:06.306Z,3.30
2017-10-21T10:58:33.853Z,5.10
2017-10-21T11:01:01.430Z,4.17
2017-10-21T11:03:28.976Z,3.83
2017-10-21T11:05:56.563Z,4.10
2017-10-21T11:08:24.098Z,3.97
2017-10-21T11:10:51.660Z,3.60
2017-10-21T11:13:19.230Z,4.03
2017-10-21T11:15:47.700Z,4.20
2017-10-21T11:18:15.394Z,3.60
2017-10-21T11:20:42.941Z,3.37
2017-10-21T11:23:10.516Z,3.77
2017-10-21T11:25:38.068Z,4.20
2017-10-21T11:28:05.660Z,3.60
2017-10-21T11:30:33.218Z,4.10
2017-10-21T11:33:01.557Z,3.60
2017-10-21T11:35:29.096Z,4.40
2017-10-21T11:37:57.428Z,3.83
2017-10-21T11:40:24.995Z,3.43
2017-10-21T11:42:52.650Z,3.20
2017-10-21T11:45:20.230Z,3.30
2017-10-21T11:47:47.795Z,3.30
2017-10-21T11:50:16.134Z,3.60
2017-10-21T11:52:43.696Z,3.50
2017-10-21T11:55:11.257Z,4.00
2017-10-21T11:57:38.797Z,3.50
2017-10-21T12:00:07.174Z,3.83
2017-10-21T12:02:35.500Z,3.80
2017-10-21T12:05:03.036Z,4.60
2017-10-21T12:07:30.612Z,3.70
2017-10-21T12:09:58.158Z,4.70
2017-10-21T12:12:25.732Z,4.07
2017-10-21T12:14:53.275Z,4.30
2017-10-21T12:17:21.598Z,3.63
2017-10-21T12:19:49.125Z,4.27
2017-10-21T12:22:16.717Z,4.27
2017-10-21T12:24:44.281Z,3.17
2017-10-21T12:27:11.830Z,2.93
2017-10-21T12:29:39.402Z,2.90
2017-10-21T12:32:06.943Z,3.70
2017-10-21T12:34:34.516Z,3.30
2017-10-21T12:37:02.062Z,3.13
2017-10-21T12:39:29.669Z,3.30
2017-10-21T12:41:57.221Z,3.57
2017-10-21T12:44:24.759Z,3.00
2017-10-21T12:46:52.349Z,2.37
2017-10-21T12:49:19.907Z,3.00
2017-10-21T12:51:47.460Z,2.73
2017-10-21T12:54:14.996Z,3.83
2017-10-21T12:56:42.577Z,3.10
2017-10-21T12:59:10.123Z,3.37
2017-10-21T13:01:37.673Z,2.80
2017-10-21T13:04:05.240Z,2.60
2017-10-21T13:06:32.782Z,3.20
2017-10-21T13:09:01.111Z,2.70
2017-10-21T13:11:28.642Z,2.33
2017-10-21T13:13:56.210Z,2.50
2017-10-21T13:16:23.764Z,2.40
2017-10-21T13:18:51.302Z,2.90
2017-10-21T13:21:19.634Z,2.47
2017-10-21T13:23:47.179Z,1.83
2017-10-21T13:26:14.731Z,2.50
2017-10-21T13:28:42.284Z,2.50
2017-10-21T13:31:09.865Z,1.97
2017-10-21T13:33:37.413Z,2.83
2017-10-21T13:36:04.954Z,1.70
2017-10-21T13:38:33.273Z,1.90
2017-10-21T13:41:00.801Z,1.63
2017-10-21T13:43:29.122Z,2.83
2017-10-21T13:45:56.667Z,2.23
2017-10-21T13:48:24.235Z,2.73
2017-10-21T13:50:51.762Z,2.00
2017-10-21T13:53:20.098Z,2.53
2017-10-21T13:55:47.642Z,1.73
2017-10-21T13:58:15.187Z,2.67
2017-10-21T14:00:42.749Z,3.77
2017-10-21T14:03:10.287Z,3.00
2017-10-21T14:05:38.630Z,3.13
2017-10-21T14:08:06.163Z,2.50
2017-10-21T14:10:33.709Z,2.33
2017-10-21T14:13:01.266Z,1.70
2017-10-21T14:15:28.872Z,2.17
2017-10-21T14:17:57.309Z,1.70
2017-10-21T14:20:25.632Z,1.90
2017-10-21T14:22:53.242Z,2.20
2017-10-21T14:25:20.805Z,2.30
2017-10-21T14:27:49.158Z,1.83
2017-10-21T14:30:16.716Z,2.53
2017-10-21T14:32:44.297Z,2.53
2017-10-21T14:35:12.604Z,2.60
2017-10-21T14:37:40.188Z,1.90
2017-10-21T14:40:07.741Z,1.90
2017-10-21T14:42:35.344Z,2.03
2017-10-21T14:45:02.892Z,2.53
2017-10-21T14:47:31.127Z,1.80
2017-10-21T14:49:58.698Z,1.73
2017-10-21T14:52:26.222Z,2.03
2017-10-21T14:54:53.824Z,1.67
2017-10-21T14:57:21.359Z,1.70
2017-10-21T14:59:49.707Z,1.70
2017-10-21T15:02:17.311Z,1.60
2017-10-21T15:04:45.657Z,1.87
2017-10-21T15:07:13.205Z,2.33
2017-10-21T15:09:40.788Z,1.77
2017-10-21T15:12:08.326Z,2.07
2017-10-21T15:14:35.875Z,1.97
2017-10-21T15:17:03.460Z,1.90
2017-10-21T15:19:31.020Z,1.80
2017-10-21T15:21:58.589Z,1.80
2017-10-21T15:24:26.135Z,2.30
2017-10-21T15:26:53.754Z,1.10
2017-10-21T15:29:21.302Z,1.67
2017-10-21T15:31:49.642Z,1.13
2017-10-21T15:34:17.198Z,1.37
2017-10-21T15:36:44.766Z,2.00
2017-10-21T15:39:12.331Z,1.37
2017-10-21T15:41:39.888Z,1.37
2017-10-21T15:44:07.463Z,1.93
2017-10-21T15:46:35.005Z,1.70
2017-10-21T15:49:02.557Z,1.30
2017-10-21T15:51:30.114Z,1.33
2017-10-21T15:53:57.690Z,2.17
2017-10-21T15:56:25.248Z,1.90
2017-10-21T15:58:52.841Z,2.20
2017-10-21T16:01:20.383Z,1.90
2017-10-21T16:03:47.930Z,1.60
2017-10-21T16:06:15.488Z,2.00
2017-10-21T16:08:43.021Z,1.13
2017-10-21T16:11:10.600Z,2.20
2017-10-21T16:13:38.166Z,1.40
2017-10-21T16:16:05.738Z,1.87
2017-10-21T16:18:33.312Z,1.30
2017-10-21T16:21:00.892Z,1.90
2017-10-21T16:23:28.433Z,2.07
2017-10-21T16:25:56.023Z,1.40
2017-10-21T16:28:23.576Z,1.93
2017-10-21T16:30:51.134Z,1.87
2017-10-21T16:33:18.713Z,1.63
2017-10-21T16:35:47.036Z,2.80
2017-10-21T16:38:14.608Z,2.73
2017-10-21T16:40:42.163Z,2.37
2017-10-21T16:43:09.740Z,3.80
2017-10-21T16:45:37.283Z,2.43
2017-10-21T16:48:05.779Z,4.77
2017-10-21T16:50:34.100Z,3.83
2017-10-21T16:53:01.679Z,4.37
2017-10-21T16:55:29.986Z,3.57
2017-10-21T16:57:57.572Z,3.33
2017-10-21T17:00:25.129Z,2.53
2017-10-21T17:02:52.695Z,2.47
2017-10-21T17:05:20.286Z,2.60
2017-10-21T17:07:47.842Z,3.03
2017-10-21T17:10:15.418Z,2.10
2017-10-21T17:12:42.956Z,2.57
2017-10-21T17:15:10.546Z,2.30
2017-10-21T17:17:38.898Z,2.10
2017-10-21T17:20:06.477Z,2.73
2017-10-21T17:22:34.055Z,2.83
2017-10-21T17:25:02.418Z,2.67
2017-10-21T17:27:29.973Z,2.33
2017-10-21T17:29:57.535Z,2.50
2017-10-21T17:32:25.114Z,2.53
2017-10-21T17:34:52.659Z,2.43
2017-10-21T17:37:20.227Z,2.00
2017-10-21T17:39:47.766Z,1.97
2017-10-21T17:42:15.328Z,3.13
2017-10-21T17:44:42.868Z,2.40
2017-10-21T17:47:10.448Z,3.27
2017-10-21T17:49:38.026Z,2.53
2017-10-21T17:52:05.585Z,2.37
2017-10-21T17:54:33.140Z,2.67
2017-10-21T17:57:00.672Z,3.10
2017-10-21T17:59:28.226Z,2.80
2017-10-21T18:01:55.775Z,2.27
2017-10-21T18:04:24.125Z,1.80
2017-10-21T18:06:51.686Z,3.03
2017-10-21T18:09:19.249Z,1.87
2017-10-21T18:11:46.836Z,2.40
2017-10-21T18:14:15.144Z,2.40
2017-10-21T18:16:42.704Z,1.73
2017-10-21T18:19:10.255Z,2.23
2017-10-21T18:21:37.856Z,2.30
2017-10-21T18:24:05.428Z,2.20
2017-10-21T18:26:33.005Z,3.27
2017-10-21T18:29:00.533Z,3.10
2017-10-21T18:31:28.112Z,2.80
2017-10-21T18:33:55.645Z,2.60
2017-10-21T18:36:23.216Z,2.70
2017-10-21T18:38:50.765Z,2.77
2017-10-21T18:41:18.313Z,2.80
2017-10-21T18:43:45.879Z,2.17
2017-10-21T18:46:13.445Z,1.80
2017-10-21T18:48:41.018Z,2.70
2017-10-21T18:51:08.553Z,2.10
2017-10-21T18:53:36.118Z,3.53
2017-10-21T18:56:03.670Z,2.00
2017-10-21T18:58:32.012Z,2.90
2017-10-21T19:00:59.542Z,2.67
2017-10-21T19:03:27.069Z,2.30
2017-10-21T19:05:55.417Z,2.13
2017-10-21T19:08:22.979Z,1.87
2017-10-21T19:10:50.533Z,2.63
2017-10-21T19:13:18.096Z,3.00
2017-10-21T19:15:45.658Z,2.90
2017-10-21T19:18:13.293Z,2.47
2017-10-21T19:20:40.834Z,2.40
2017-10-21T19:23:08.389Z,2.43
2017-10-21T19:25:35.956Z,1.57
2017-10-21T19:28:03.515Z,2.90
2017-10-21T19:30:31.059Z,3.43
2017-10-21T19:32:59.405Z,2.20
2017-10-21T19:35:26.967Z,3.17
2017-10-21T19:37:54.553Z,2.27
2017-10-21T19:40:22.126Z,3.23
2017-10-21T19:42:50.467Z,2.43
2017-10-21T19:45:18.029Z,2.00
2017-10-21T19:47:45.573Z,2.10
2017-10-21T19:50:13.168Z,1.90
2017-10-21T19:52:40.720Z,2.00
2017-10-21T19:55:08.310Z,1.97
2017-10-21T19:57:36.647Z,2.33
2017-10-21T20:00:04.233Z,2.43
2017-10-21T20:02:31.778Z,2.27
2017-10-21T20:04:59.369Z,3.10
2017-10-21T20:07:26.914Z,2.70
2017-10-21T20:09:54.455Z,2.30
2017-10-21T20:12:22.053Z,3.17
2017-10-21T20:14:49.590Z,2.13
2017-10-21T20:17:17.165Z,2.37
2017-10-21T20:19:44.712Z,2.40
2017-10-21T20:22:12.283Z,2.23
2017-10-21T20:24:39.856Z,2.60
2017-10-21T20:27:07.472Z,2.83
2017-10-21T20:29:34.997Z,2.50
2017-10-21T20:32:03.336Z,2.90
2017-10-21T20:34:30.874Z,2.40
2017-10-21T20:36:58.432Z,3.20
2017-10-21T20:39:26.151Z,2.40
2017-10-21T20:41:53.738Z,2.33
2017-10-21T20:44:22.064Z,2.60
2017-10-21T20:46:49.622Z,2.50
2017-10-21T20:49:17.205Z,3.20
2017-10-21T20:51:44.762Z,3.00
2017-10-21T20:54:12.329Z,2.87
2017-10-21T20:56:39.913Z,2.50
2017-10-21T20:59:07.466Z,2.50
2017-10-21T21:01:35.059Z,3.00
2017-10-21T21:04:03.366Z,2.20
2017-10-21T21:06:30.951Z,2.53
2017-10-21T21:08:58.488Z,2.40
2017-10-21T21:11:26.026Z,2.20
2017-10-21T21:13:53.594Z,2.00
2017-10-21T21:16:21.129Z,2.93
2017-10-21T21:18:49.450Z,1.50
2017-10-21T21:21:17.004Z,2.23
2017-10-21T21:23:44.581Z,2.63
2017-10-21T21:26:12.130Z,2.50
2017-10-21T21:28:39.708Z,2.33
2017-10-21T21:31:07.278Z,2.83
2017-10-21T21:33:34.818Z,2.30
2017-10-21T21:36:02.394Z,2.60
2017-10-21T21:38:29.929Z,2.33
2017-10-21T21:40:57.520Z,2.60
2017-10-21T21:43:25.058Z,3.07
2017-10-21T21:45:52.604Z,2.90
2017-10-21T21:48:20.930Z,3.20
2017-10-21T21:50:48.477Z,3.03
2017-10-21T21:53:16.050Z,2.70
2017-10-21T21:55:43.585Z,2.20
2017-10-21T21:58:11.163Z,2.90
2017-10-21T22:00:38.703Z,2.20
2017-10-21T22:03:06.267Z,2.63
2017-10-21T22:05:33.799Z,2.03
2017-10-21T22:08:02.127Z,4.23
2017-10-21T22:10:29.699Z,2.63
2017-10-21T22:12:58.014Z,2.50
2017-10-21T22:15:25.568Z,2.13
2017-10-21T22:17:53.112Z,2.50
2017-10-21T22:20:21.456Z,2.60
2017-10-21T22:22:49.010Z,3.20
2017-10-21T22:25:16.546Z,3.30
2017-10-21T22:27:44.121Z,1.90
2017-10-21T22:30:12.432Z,2.40
2017-10-21T22:32:39.992Z,3.13
2017-10-21T22:35:07.543Z,2.40
2017-10-21T22:37:35.131Z,2.30
2017-10-21T22:40:02.679Z,2.00
2017-10-21T22:42:30.248Z,2.47
2017-10-21T22:44:57.814Z,3.17
2017-10-21T22:47:25.373Z,3.03
2017-10-21T22:49:52.954Z,2.33
2017-10-21T22:52:20.487Z,1.67
2017-10-21T22:54:48.047Z,2.40
2017-10-21T22:57:15.935Z,2.03
2017-10-21T22:59:43.501Z,2.10
2017-10-21T23:02:11.033Z,2.97
2017-10-21T23:04:38.588Z,3.70
2017-10-21T23:07:06.163Z,2.20
2017-10-21T23:09:33.710Z,2.90
2017-10-21T23:12:01.302Z,2.63
2017-10-21T23:14:28.832Z,2.70
2017-10-21T23:16:56.398Z,3.00
2017-10-21T23:19:23.981Z,1.90
2017-10-21T23:21:51.524Z,2.33
2017-10-21T23:24:19.076Z,2.80
2017-10-21T23:26:46.616Z,2.97
2017-10-21T23:29:14.961Z,2.40
2017-10-21T23:31:42.497Z,2.53
2017-10-21T23:34:10.039Z,2.50
2017-10-21T23:36:37.635Z,3.30
2017-10-21T23:39:05.182Z,2.50
2017-10-21T23:41:32.758Z,2.73
2017-10-21T23:44:00.315Z,2.63
2017-10-21T23:46:27.873Z,2.37
2017-10-21T23:48:55.440Z,2.97
2017-10-21T23:51:23.105Z,2.10
2017-10-21T23:53:50.663Z,2.40
2017-10-21T23:56:18.200Z,1.87
2017-10-21T23:58:45.768Z,2.70
